sensor_id;sensor_type;location;lat;lon;timestamp;P1;durP1;ratioP1;P2;durP2;ratioP2
12838;SDS011;6486;51.034;5.262;2023-05-10T00:00:41;2.97;;;1.57;;
12838;SDS011;6486;51.034;5.262;2023-05-10T00:03:07;4.70;;;1.57;;
12838;SDS011;6486;51.034;5.262;2023-05-10T00:05:32;2.53;;;2.07;;
12838;SDS011;6486;51.034;5.262;2023-05-10T00:07:58;2.77;;;2.13;;
12838;SDS011;6486;51.034;5.262;2023-05-10T00:10:24;2.03;;;1.93;;
12838;SDS011;6486;51.034;5.262;2023-05-10T00:12:49;3.00;;;2.07;;
12838;SDS011;6486;51.034;5.262;2023-05-10T00:15:15;2.83;;;1.83;;
12838;SDS011;6486;51.034;5.262;2023-05-10T00:17:40;1.70;;;1.60;;
12838;SDS011;6486;51.034;5.262;2023-05-10T00:20:06;6.27;;;2.93;;
12838;SDS011;6486;51.034;5.262;2023-05-10T00:22:32;4.97;;;2.87;;
12838;SDS011;6486;51.034;5.262;2023-05-10T00:24:58;4.67;;;2.27;;
12838;SDS011;6486;51.034;5.262;2023-05-10T00:27:24;3.70;;;1.57;;
12838;SDS011;6486;51.034;5.262;2023-05-10T00:29:49;5.70;;;1.77;;
12838;SDS011;6486;51.034;5.262;2023-05-10T00:32:15;3.10;;;1.63;;
12838;SDS011;6486;51.034;5.262;2023-05-10T00:34:41;3.97;;;2.30;;
12838;SDS011;6486;51.034;5.262;2023-05-10T00:37:07;1.47;;;1.37;;
12838;SDS011;6486;51.034;5.262;2023-05-10T00:39:32;2.30;;;1.93;;
12838;SDS011;6486;51.034;5.262;2023-05-10T00:41:58;1.63;;;1.53;;
12838;SDS011;6486;51.034;5.262;2023-05-10T00:44:25;2.73;;;1.33;;
12838;SDS011;6486;51.034;5.262;2023-05-10T00:46:50;7.97;;;1.87;;
12838;SDS011;6486;51.034;5.262;2023-05-10T00:49:17;5.97;;;1.70;;
12838;SDS011;6486;51.034;5.262;2023-05-10T00:51:43;2.27;;;1.60;;
12838;SDS011;6486;51.034;5.262;2023-05-10T00:54:11;4.43;;;1.50;;
12838;SDS011;6486;51.034;5.262;2023-05-10T00:56:38;1.43;;;1.40;;
12838;SDS011;6486;51.034;5.262;2023-05-10T00:59:05;2.60;;;1.80;;
12838;SDS011;6486;51.034;5.262;2023-05-10T01:01:31;2.97;;;1.20;;
12838;SDS011;6486;51.034;5.262;2023-05-10T01:03:57;3.00;;;1.67;;
12838;SDS011;6486;51.034;5.262;2023-05-10T01:06:23;1.60;;;1.50;;
12838;SDS011;6486;51.034;5.262;2023-05-10T01:08:49;2.40;;;1.10;;
12838;SDS011;6486;51.034;5.262;2023-05-10T01:11:15;2.90;;;2.70;;
12838;SDS011;6486;51.034;5.262;2023-05-10T01:13:41;3.37;;;1.47;;
12838;SDS011;6486;51.034;5.262;2023-05-10T01:16:08;4.53;;;1.23;;
12838;SDS011;6486;51.034;5.262;2023-05-10T01:18:35;2.67;;;1.60;;
12838;SDS011;6486;51.034;5.262;2023-05-10T01:29:38;3.90;;;1.87;;
12838;SDS011;6486;51.034;5.262;2023-05-10T01:32:14;2.90;;;1.57;;
12838;SDS011;6486;51.034;5.262;2023-05-10T01:34:50;3.10;;;1.83;;
12838;SDS011;6486;51.034;5.262;2023-05-10T01:37:45;2.03;;;0.80;;
12838;SDS011;6486;51.034;5.262;2023-05-10T01:40:19;3.17;;;1.30;;
12838;SDS011;6486;51.034;5.262;2023-05-10T01:42:51;3.50;;;1.20;;
12838;SDS011;6486;51.034;5.262;2023-05-10T01:45:38;2.50;;;1.77;;
12838;SDS011;6486;51.034;5.262;2023-05-10T01:48:12;1.80;;;1.53;;
12838;SDS011;6486;51.034;5.262;2023-05-10T01:50:41;2.23;;;2.00;;
12838;SDS011;6486;51.034;5.262;2023-05-10T01:53:10;3.40;;;1.67;;
12838;SDS011;6486;51.034;5.262;2023-05-10T01:55:47;2.83;;;1.50;;
12838;SDS011;6486;51.034;5.262;2023-05-10T01:58:20;1.83;;;1.70;;
12838;SDS011;6486;51.034;5.262;2023-05-10T02:00:49;2.30;;;1.80;;
12838;SDS011;6486;51.034;5.262;2023-05-10T02:03:15;3.10;;;1.60;;
12838;SDS011;6486;51.034;5.262;2023-05-10T02:05:43;2.33;;;2.17;;
12838;SDS011;6486;51.034;5.262;2023-05-10T02:08:11;2.37;;;1.53;;
12838;SDS011;6486;51.034;5.262;2023-05-10T02:10:38;1.83;;;1.70;;
12838;SDS011;6486;51.034;5.262;2023-05-10T02:13:05;2.30;;;1.40;;
12838;SDS011;6486;51.034;5.262;2023-05-10T02:15:33;3.40;;;1.87;;
12838;SDS011;6486;51.034;5.262;2023-05-10T02:17:59;1.67;;;0.93;;
12838;SDS011;6486;51.034;5.262;2023-05-10T02:20:27;4.20;;;1.93;;
12838;SDS011;6486;51.034;5.262;2023-05-10T02:22:54;1.77;;;1.53;;
12838;SDS011;6486;51.034;5.262;2023-05-10T02:25:23;2.23;;;2.03;;
12838;SDS011;6486;51.034;5.262;2023-05-10T02:27:49;3.07;;;1.73;;
12838;SDS011;6486;51.034;5.262;2023-05-10T02:30:16;2.17;;;1.50;;
12838;SDS011;6486;51.034;5.262;2023-05-10T02:32:43;1.67;;;1.40;;
12838;SDS011;6486;51.034;5.262;2023-05-10T02:35:10;2.70;;;2.00;;
12838;SDS011;6486;51.034;5.262;2023-05-10T02:37:37;1.87;;;1.77;;
12838;SDS011;6486;51.034;5.262;2023-05-10T02:40:04;3.07;;;1.30;;
12838;SDS011;6486;51.034;5.262;2023-05-10T02:42:32;1.07;;;1.07;;
12838;SDS011;6486;51.034;5.262;2023-05-10T02:45:01;2.30;;;1.53;;
12838;SDS011;6486;51.034;5.262;2023-05-10T02:47:30;2.97;;;1.20;;
12838;SDS011;6486;51.034;5.262;2023-05-10T02:49:56;3.87;;;2.03;;
12838;SDS011;6486;51.034;5.262;2023-05-10T02:52:25;9.63;;;2.37;;
12838;SDS011;6486;51.034;5.262;2023-05-10T02:54:55;6.20;;;1.90;;
12838;SDS011;6486;51.034;5.262;2023-05-10T02:57:27;2.07;;;1.50;;
12838;SDS011;6486;51.034;5.262;2023-05-10T02:59:57;3.07;;;1.70;;
12838;SDS011;6486;51.034;5.262;2023-05-10T03:02:23;1.97;;;1.87;;
12838;SDS011;6486;51.034;5.262;2023-05-10T03:04:50;6.07;;;3.10;;
12838;SDS011;6486;51.034;5.262;2023-05-10T03:07:16;5.80;;;3.30;;
12838;SDS011;6486;51.034;5.262;2023-05-10T03:09:44;3.40;;;2.73;;
12838;SDS011;6486;51.034;5.262;2023-05-10T03:17:36;3.27;;;1.97;;
12838;SDS011;6486;51.034;5.262;2023-05-10T03:20:43;3.67;;;2.57;;
12838;SDS011;6486;51.034;5.262;2023-05-10T03:23:21;3.13;;;2.50;;
12838;SDS011;6486;51.034;5.262;2023-05-10T03:25:52;3.70;;;2.33;;
12838;SDS011;6486;51.034;5.262;2023-05-10T03:28:18;3.40;;;2.40;;
12838;SDS011;6486;51.034;5.262;2023-05-10T03:30:45;3.17;;;1.90;;
12838;SDS011;6486;51.034;5.262;2023-05-10T03:33:11;2.60;;;1.93;;
12838;SDS011;6486;51.034;5.262;2023-05-10T03:35:38;6.47;;;2.63;;
12838;SDS011;6486;51.034;5.262;2023-05-10T03:38:04;3.43;;;1.77;;
12838;SDS011;6486;51.034;5.262;2023-05-10T03:40:29;4.33;;;1.90;;
12838;SDS011;6486;51.034;5.262;2023-05-10T03:42:57;1.47;;;1.07;;
12838;SDS011;6486;51.034;5.262;2023-05-10T03:45:23;1.60;;;1.50;;
12838;SDS011;6486;51.034;5.262;2023-05-10T03:47:48;15.87;;;2.47;;
12838;SDS011;6486;51.034;5.262;2023-05-10T03:50:14;4.13;;;2.07;;
12838;SDS011;6486;51.034;5.262;2023-05-10T03:52:40;3.73;;;1.70;;
12838;SDS011;6486;51.034;5.262;2023-05-10T03:55:06;4.67;;;2.13;;
12838;SDS011;6486;51.034;5.262;2023-05-10T03:57:32;5.20;;;2.10;;
12838;SDS011;6486;51.034;5.262;2023-05-10T03:59:58;6.57;;;3.67;;
12838;SDS011;6486;51.034;5.262;2023-05-10T04:02:24;2.60;;;1.70;;
12838;SDS011;6486;51.034;5.262;2023-05-10T04:04:50;1.57;;;1.37;;
12838;SDS011;6486;51.034;5.262;2023-05-10T04:07:16;5.67;;;1.93;;
12838;SDS011;6486;51.034;5.262;2023-05-10T04:09:41;4.00;;;2.60;;
12838;SDS011;6486;51.034;5.262;2023-05-10T04:12:07;10.03;;;2.37;;
12838;SDS011;6486;51.034;5.262;2023-05-10T04:14:33;2.10;;;1.67;;
12838;SDS011;6486;51.034;5.262;2023-05-10T04:16:59;6.27;;;2.07;;
12838;SDS011;6486;51.034;5.262;2023-05-10T04:19:28;2.93;;;2.20;;
12838;SDS011;6486;51.034;5.262;2023-05-10T04:21:57;4.43;;;2.90;;
12838;SDS011;6486;51.034;5.262;2023-05-10T04:24:23;1.87;;;1.77;;
12838;SDS011;6486;51.034;5.262;2023-05-10T04:26:49;3.57;;;2.30;;
12838;SDS011;6486;51.034;5.262;2023-05-10T04:29:14;4.30;;;2.67;;
12838;SDS011;6486;51.034;5.262;2023-05-10T04:31:40;6.70;;;2.60;;
12838;SDS011;6486;51.034;5.262;2023-05-10T04:34:06;2.87;;;1.43;;
12838;SDS011;6486;51.034;5.262;2023-05-10T04:36:31;2.77;;;2.50;;
12838;SDS011;6486;51.034;5.262;2023-05-10T04:38:58;2.43;;;1.83;;
12838;SDS011;6486;51.034;5.262;2023-05-10T04:41:24;6.80;;;2.67;;
12838;SDS011;6486;51.034;5.262;2023-05-10T04:43:50;3.90;;;2.37;;
12838;SDS011;6486;51.034;5.262;2023-05-10T04:46:16;4.67;;;2.77;;
12838;SDS011;6486;51.034;5.262;2023-05-10T04:48:41;7.37;;;3.77;;
12838;SDS011;6486;51.034;5.262;2023-05-10T04:51:07;1.73;;;1.53;;
12838;SDS011;6486;51.034;5.262;2023-05-10T04:53:33;5.30;;;2.70;;
12838;SDS011;6486;51.034;5.262;2023-05-10T04:55:58;6.10;;;3.13;;
12838;SDS011;6486;51.034;5.262;2023-05-10T04:58:24;1.90;;;1.70;;
12838;SDS011;6486;51.034;5.262;2023-05-10T05:00:49;5.50;;;3.23;;
12838;SDS011;6486;51.034;5.262;2023-05-10T05:03:15;7.10;;;3.60;;
12838;SDS011;6486;51.034;5.262;2023-05-10T05:05:41;8.97;;;3.90;;
12838;SDS011;6486;51.034;5.262;2023-05-10T05:08:06;5.93;;;1.77;;
12838;SDS011;6486;51.034;5.262;2023-05-10T05:10:32;2.87;;;2.40;;
12838;SDS011;6486;51.034;5.262;2023-05-10T05:12:58;6.27;;;2.57;;
12838;SDS011;6486;51.034;5.262;2023-05-10T05:15:23;6.33;;;3.37;;
12838;SDS011;6486;51.034;5.262;2023-05-10T05:17:49;4.17;;;3.63;;
12838;SDS011;6486;51.034;5.262;2023-05-10T05:20:15;5.87;;;4.23;;
12838;SDS011;6486;51.034;5.262;2023-05-10T05:22:40;4.57;;;4.10;;
12838;SDS011;6486;51.034;5.262;2023-05-10T05:25:06;8.03;;;4.83;;
12838;SDS011;6486;51.034;5.262;2023-05-10T05:27:32;5.80;;;4.60;;
12838;SDS011;6486;51.034;5.262;2023-05-10T05:29:58;8.60;;;4.80;;
12838;SDS011;6486;51.034;5.262;2023-05-10T05:32:24;13.80;;;6.10;;
12838;SDS011;6486;51.034;5.262;2023-05-10T05:34:50;6.87;;;6.07;;
12838;SDS011;6486;51.034;5.262;2023-05-10T05:37:17;7.20;;;4.30;;
12838;SDS011;6486;51.034;5.262;2023-05-10T05:39:44;9.87;;;6.00;;
12838;SDS011;6486;51.034;5.262;2023-05-10T05:42:11;10.37;;;6.97;;
12838;SDS011;6486;51.034;5.262;2023-05-10T05:44:37;8.43;;;5.13;;
12838;SDS011;6486;51.034;5.262;2023-05-10T05:47:03;9.70;;;5.20;;
12838;SDS011;6486;51.034;5.262;2023-05-10T05:49:29;8.70;;;5.17;;
12838;SDS011;6486;51.034;5.262;2023-05-10T05:51:58;8.37;;;5.07;;
12838;SDS011;6486;51.034;5.262;2023-05-10T05:54:25;7.97;;;4.53;;
12838;SDS011;6486;51.034;5.262;2023-05-10T05:56:53;9.20;;;5.17;;
12838;SDS011;6486;51.034;5.262;2023-05-10T05:59:19;7.07;;;5.60;;
12838;SDS011;6486;51.034;5.262;2023-05-10T06:01:45;6.60;;;4.83;;
12838;SDS011;6486;51.034;5.262;2023-05-10T06:04:10;9.40;;;5.37;;
12838;SDS011;6486;51.034;5.262;2023-05-10T06:06:36;5.93;;;4.10;;
12838;SDS011;6486;51.034;5.262;2023-05-10T06:09:02;10.27;;;3.77;;
12838;SDS011;6486;51.034;5.262;2023-05-10T06:11:27;7.90;;;5.17;;
12838;SDS011;6486;51.034;5.262;2023-05-10T06:13:53;8.87;;;4.70;;
12838;SDS011;6486;51.034;5.262;2023-05-10T06:16:18;8.90;;;4.90;;
12838;SDS011;6486;51.034;5.262;2023-05-10T06:18:44;6.33;;;4.73;;
12838;SDS011;6486;51.034;5.262;2023-05-10T06:21:10;9.83;;;4.03;;
12838;SDS011;6486;51.034;5.262;2023-05-10T06:23:35;10.47;;;5.50;;
12838;SDS011;6486;51.034;5.262;2023-05-10T06:26:01;7.63;;;5.17;;
12838;SDS011;6486;51.034;5.262;2023-05-10T06:28:27;7.10;;;4.37;;
12838;SDS011;6486;51.034;5.262;2023-05-10T06:30:52;7.17;;;4.17;;
12838;SDS011;6486;51.034;5.262;2023-05-10T06:33:18;8.03;;;4.97;;
12838;SDS011;6486;51.034;5.262;2023-05-10T06:35:43;6.93;;;4.10;;
12838;SDS011;6486;51.034;5.262;2023-05-10T06:38:09;10.60;;;6.00;;
12838;SDS011;6486;51.034;5.262;2023-05-10T06:40:35;9.03;;;4.40;;
12838;SDS011;6486;51.034;5.262;2023-05-10T06:43:01;5.70;;;3.80;;
12838;SDS011;6486;51.034;5.262;2023-05-10T06:45:27;7.03;;;3.10;;
12838;SDS011;6486;51.034;5.262;2023-05-10T06:47:52;9.53;;;4.40;;
12838;SDS011;6486;51.034;5.262;2023-05-10T06:50:18;10.57;;;3.93;;
12838;SDS011;6486;51.034;5.262;2023-05-10T06:52:43;7.67;;;3.67;;
12838;SDS011;6486;51.034;5.262;2023-05-10T06:55:09;9.03;;;5.13;;
12838;SDS011;6486;51.034;5.262;2023-05-10T06:57:35;6.73;;;4.10;;
12838;SDS011;6486;51.034;5.262;2023-05-10T07:00:01;9.70;;;3.60;;
12838;SDS011;6486;51.034;5.262;2023-05-10T07:02:29;8.27;;;4.57;;
12838;SDS011;6486;51.034;5.262;2023-05-10T07:04:54;5.67;;;4.57;;
12838;SDS011;6486;51.034;5.262;2023-05-10T07:07:20;8.80;;;4.63;;
12838;SDS011;6486;51.034;5.262;2023-05-10T07:09:46;8.90;;;4.83;;
12838;SDS011;6486;51.034;5.262;2023-05-10T07:12:11;6.23;;;4.17;;
12838;SDS011;6486;51.034;5.262;2023-05-10T07:14:37;7.13;;;4.63;;
12838;SDS011;6486;51.034;5.262;2023-05-10T07:17:03;4.67;;;3.87;;
12838;SDS011;6486;51.034;5.262;2023-05-10T07:19:28;6.70;;;5.37;;
12838;SDS011;6486;51.034;5.262;2023-05-10T07:21:54;13.00;;;5.53;;
12838;SDS011;6486;51.034;5.262;2023-05-10T07:24:20;6.57;;;4.83;;
12838;SDS011;6486;51.034;5.262;2023-05-10T07:26:46;9.33;;;4.93;;
12838;SDS011;6486;51.034;5.262;2023-05-10T07:29:11;3.63;;;3.33;;
12838;SDS011;6486;51.034;5.262;2023-05-10T07:31:37;6.77;;;3.93;;
12838;SDS011;6486;51.034;5.262;2023-05-10T07:34:03;9.53;;;3.57;;
12838;SDS011;6486;51.034;5.262;2023-05-10T07:36:28;11.50;;;5.10;;
12838;SDS011;6486;51.034;5.262;2023-05-10T07:38:54;9.03;;;4.90;;
12838;SDS011;6486;51.034;5.262;2023-05-10T07:41:21;7.43;;;4.13;;
12838;SDS011;6486;51.034;5.262;2023-05-10T07:43:47;3.70;;;2.70;;
12838;SDS011;6486;51.034;5.262;2023-05-10T07:46:13;4.27;;;3.87;;
12838;SDS011;6486;51.034;5.262;2023-05-10T07:48:38;12.17;;;5.03;;
12838;SDS011;6486;51.034;5.262;2023-05-10T07:51:04;4.80;;;4.20;;
12838;SDS011;6486;51.034;5.262;2023-05-10T07:53:31;12.37;;;5.10;;
12838;SDS011;6486;51.034;5.262;2023-05-10T07:55:57;6.00;;;3.93;;
12838;SDS011;6486;51.034;5.262;2023-05-10T07:58:23;9.13;;;4.93;;
12838;SDS011;6486;51.034;5.262;2023-05-10T08:00:49;6.63;;;4.47;;
12838;SDS011;6486;51.034;5.262;2023-05-10T08:03:15;26.03;;;4.20;;
12838;SDS011;6486;51.034;5.262;2023-05-10T08:05:41;6.90;;;4.27;;
12838;SDS011;6486;51.034;5.262;2023-05-10T08:08:06;8.40;;;4.77;;
12838;SDS011;6486;51.034;5.262;2023-05-10T08:10:32;5.70;;;3.47;;
12838;SDS011;6486;51.034;5.262;2023-05-10T08:12:58;7.07;;;3.93;;
12838;SDS011;6486;51.034;5.262;2023-05-10T08:15:24;10.77;;;3.60;;
12838;SDS011;6486;51.034;5.262;2023-05-10T08:17:51;6.43;;;3.30;;
12838;SDS011;6486;51.034;5.262;2023-05-10T08:20:17;7.27;;;3.63;;
12838;SDS011;6486;51.034;5.262;2023-05-10T08:22:44;4.37;;;3.33;;
12838;SDS011;6486;51.034;5.262;2023-05-10T08:25:10;7.73;;;4.20;;
12838;SDS011;6486;51.034;5.262;2023-05-10T08:27:36;7.37;;;3.30;;
12838;SDS011;6486;51.034;5.262;2023-05-10T08:30:02;4.17;;;3.17;;
12838;SDS011;6486;51.034;5.262;2023-05-10T08:32:28;7.60;;;4.27;;
12838;SDS011;6486;51.034;5.262;2023-05-10T08:34:53;7.30;;;3.70;;
12838;SDS011;6486;51.034;5.262;2023-05-10T08:37:20;6.47;;;3.97;;
12838;SDS011;6486;51.034;5.262;2023-05-10T08:39:45;4.00;;;3.73;;
12838;SDS011;6486;51.034;5.262;2023-05-10T08:42:13;7.03;;;4.03;;
12838;SDS011;6486;51.034;5.262;2023-05-10T08:44:44;3.93;;;2.47;;
12838;SDS011;6486;51.034;5.262;2023-05-10T08:47:13;28.70;;;3.23;;
12838;SDS011;6486;51.034;5.262;2023-05-10T08:49:43;5.17;;;3.37;;
12838;SDS011;6486;51.034;5.262;2023-05-10T08:52:12;4.90;;;3.03;;
12838;SDS011;6486;51.034;5.262;2023-05-10T08:54:41;2.43;;;2.07;;
12838;SDS011;6486;51.034;5.262;2023-05-10T08:57:07;4.43;;;3.57;;
12838;SDS011;6486;51.034;5.262;2023-05-10T08:59:33;5.90;;;4.73;;
12838;SDS011;6486;51.034;5.262;2023-05-10T09:01:59;5.33;;;2.47;;
12838;SDS011;6486;51.034;5.262;2023-05-10T09:04:26;1.23;;;1.13;;
12838;SDS011;6486;51.034;5.262;2023-05-10T09:06:53;3.90;;;2.20;;
12838;SDS011;6486;51.034;5.262;2023-05-10T09:09:19;1.97;;;0.87;;
12838;SDS011;6486;51.034;5.262;2023-05-10T09:11:46;1.40;;;0.83;;
12838;SDS011;6486;51.034;5.262;2023-05-10T09:14:12;1.90;;;1.13;;
12838;SDS011;6486;51.034;5.262;2023-05-10T09:16:40;0.50;;;0.50;;
12838;SDS011;6486;51.034;5.262;2023-05-10T09:19:06;2.30;;;1.27;;
12838;SDS011;6486;51.034;5.262;2023-05-10T09:21:34;0.70;;;0.47;;
12838;SDS011;6486;51.034;5.262;2023-05-10T09:24:04;1.03;;;0.53;;
12838;SDS011;6486;51.034;5.262;2023-05-10T09:26:30;0.93;;;0.80;;
12838;SDS011;6486;51.034;5.262;2023-05-10T09:28:57;0.77;;;0.63;;
12838;SDS011;6486;51.034;5.262;2023-05-10T09:31:25;0.67;;;0.67;;
12838;SDS011;6486;51.034;5.262;2023-05-10T09:34:28;1.17;;;0.57;;
12838;SDS011;6486;51.034;5.262;2023-05-10T09:36:56;1.60;;;1.10;;
12838;SDS011;6486;51.034;5.262;2023-05-10T09:39:32;1.50;;;1.17;;
12838;SDS011;6486;51.034;5.262;2023-05-10T09:41:58;2.53;;;1.10;;
12838;SDS011;6486;51.034;5.262;2023-05-10T09:44:26;1.37;;;1.27;;
12838;SDS011;6486;51.034;5.262;2023-05-10T09:46:52;2.30;;;1.10;;
12838;SDS011;6486;51.034;5.262;2023-05-10T09:49:18;2.37;;;1.23;;
12838;SDS011;6486;51.034;5.262;2023-05-10T09:51:45;2.10;;;1.50;;
12838;SDS011;6486;51.034;5.262;2023-05-10T09:54:15;0.83;;;0.70;;
12838;SDS011;6486;51.034;5.262;2023-05-10T09:56:41;1.97;;;1.57;;
12838;SDS011;6486;51.034;5.262;2023-05-10T09:59:09;1.50;;;1.13;;
12838;SDS011;6486;51.034;5.262;2023-05-10T10:01:36;1.90;;;1.57;;
12838;SDS011;6486;51.034;5.262;2023-05-10T10:04:02;2.03;;;1.40;;
12838;SDS011;6486;51.034;5.262;2023-05-10T10:06:36;1.27;;;1.00;;
12838;SDS011;6486;51.034;5.262;2023-05-10T10:09:03;1.53;;;0.80;;
12838;SDS011;6486;51.034;5.262;2023-05-10T10:11:29;1.30;;;1.20;;
12838;SDS011;6486;51.034;5.262;2023-05-10T10:13:55;9.03;;;1.80;;
12838;SDS011;6486;51.034;5.262;2023-05-10T10:16:21;4.50;;;1.83;;
12838;SDS011;6486;51.034;5.262;2023-05-10T10:18:47;3.67;;;0.93;;
12838;SDS011;6486;51.034;5.262;2023-05-10T10:21:14;1.40;;;1.30;;
12838;SDS011;6486;51.034;5.262;2023-05-10T10:23:40;3.50;;;2.07;;
12838;SDS011;6486;51.034;5.262;2023-05-10T10:26:06;4.43;;;2.30;;
12838;SDS011;6486;51.034;5.262;2023-05-10T10:28:40;1.07;;;0.97;;
12838;SDS011;6486;51.034;5.262;2023-05-10T10:31:57;3.77;;;1.57;;
12838;SDS011;6486;51.034;5.262;2023-05-10T10:34:00;1.67;;;0.80;;
12838;SDS011;6486;51.034;5.262;2023-05-10T10:36:43;0.53;;;0.53;;
12838;SDS011;6486;51.034;5.262;2023-05-10T10:39:10;1.57;;;1.47;;
12838;SDS011;6486;51.034;5.262;2023-05-10T10:41:38;1.93;;;1.63;;
12838;SDS011;6486;51.034;5.262;2023-05-10T10:49:25;2.73;;;1.60;;
12838;SDS011;6486;51.034;5.262;2023-05-10T10:54:39;2.23;;;1.60;;
12838;SDS011;6486;51.034;5.262;2023-05-10T10:57:11;2.33;;;1.40;;
12838;SDS011;6486;51.034;5.262;2023-05-10T10:59:44;1.30;;;1.03;;
12838;SDS011;6486;51.034;5.262;2023-05-10T11:02:17;2.63;;;2.23;;
12838;SDS011;6486;51.034;5.262;2023-05-10T11:05:00;4.37;;;2.03;;
12838;SDS011;6486;51.034;5.262;2023-05-10T11:07:53;1.93;;;1.57;;
12838;SDS011;6486;51.034;5.262;2023-05-10T11:10:22;5.40;;;2.93;;
12838;SDS011;6486;51.034;5.262;2023-05-10T11:12:53;2.20;;;1.20;;
12838;SDS011;6486;51.034;5.262;2023-05-10T11:15:31;1.23;;;0.73;;
12838;SDS011;6486;51.034;5.262;2023-05-10T11:18:20;2.57;;;1.60;;
12838;SDS011;6486;51.034;5.262;2023-05-10T11:20:52;1.50;;;1.40;;
12838;SDS011;6486;51.034;5.262;2023-05-10T11:23:21;3.17;;;1.50;;
12838;SDS011;6486;51.034;5.262;2023-05-10T11:25:47;3.50;;;2.17;;
12838;SDS011;6486;51.034;5.262;2023-05-10T11:28:16;5.13;;;1.60;;
12838;SDS011;6486;51.034;5.262;2023-05-10T11:30:43;2.40;;;1.93;;
12838;SDS011;6486;51.034;5.262;2023-05-10T11:33:11;3.23;;;1.33;;
12838;SDS011;6486;51.034;5.262;2023-05-10T11:35:41;1.00;;;0.70;;
12838;SDS011;6486;51.034;5.262;2023-05-10T11:38:07;5.03;;;1.87;;
12838;SDS011;6486;51.034;5.262;2023-05-10T11:40:34;1.03;;;0.90;;
12838;SDS011;6486;51.034;5.262;2023-05-10T11:43:01;4.30;;;1.10;;
12838;SDS011;6486;51.034;5.262;2023-05-10T11:45:27;2.47;;;0.87;;
12838;SDS011;6486;51.034;5.262;2023-05-10T11:47:57;0.53;;;0.53;;
12838;SDS011;6486;51.034;5.262;2023-05-10T11:50:23;4.17;;;1.23;;
12838;SDS011;6486;51.034;5.262;2023-05-10T11:52:56;2.43;;;1.03;;
12838;SDS011;6486;51.034;5.262;2023-05-10T11:55:22;1.23;;;1.03;;
12838;SDS011;6486;51.034;5.262;2023-05-10T11:57:52;1.10;;;1.00;;
12838;SDS011;6486;51.034;5.262;2023-05-10T12:00:19;1.43;;;0.70;;
12838;SDS011;6486;51.034;5.262;2023-05-10T12:02:45;0.77;;;0.77;;
12838;SDS011;6486;51.034;5.262;2023-05-10T12:05:11;1.73;;;0.73;;
12838;SDS011;6486;51.034;5.262;2023-05-10T12:07:37;2.13;;;0.90;;
12838;SDS011;6486;51.034;5.262;2023-05-10T12:12:37;1.33;;;0.60;;
12838;SDS011;6486;51.034;5.262;2023-05-10T12:15:03;2.30;;;1.27;;
12838;SDS011;6486;51.034;5.262;2023-05-10T12:17:30;1.33;;;0.83;;
12838;SDS011;6486;51.034;5.262;2023-05-10T12:19:58;1.17;;;0.70;;
12838;SDS011;6486;51.034;5.262;2023-05-10T12:22:38;0.93;;;0.50;;
12838;SDS011;6486;51.034;5.262;2023-05-10T12:25:04;0.33;;;0.33;;
12838;SDS011;6486;51.034;5.262;2023-05-10T12:27:33;0.67;;;0.67;;
12838;SDS011;6486;51.034;5.262;2023-05-10T12:29:59;1.00;;;1.00;;
12838;SDS011;6486;51.034;5.262;2023-05-10T12:32:40;0.63;;;0.43;;
12838;SDS011;6486;51.034;5.262;2023-05-10T12:35:07;0.27;;;0.27;;
12838;SDS011;6486;51.034;5.262;2023-05-10T12:37:33;0.20;;;0.20;;
12838;SDS011;6486;51.034;5.262;2023-05-10T12:40:04;0.30;;;0.30;;
12838;SDS011;6486;51.034;5.262;2023-05-10T12:42:31;1.17;;;0.77;;
12838;SDS011;6486;51.034;5.262;2023-05-10T12:44:57;0.50;;;0.30;;
12838;SDS011;6486;51.034;5.262;2023-05-10T12:47:23;0.53;;;0.43;;
12838;SDS011;6486;51.034;5.262;2023-05-10T12:49:48;0.63;;;0.60;;
12838;SDS011;6486;51.034;5.262;2023-05-10T12:52:14;1.27;;;0.40;;
12838;SDS011;6486;51.034;5.262;2023-05-10T12:54:40;1.00;;;0.50;;
12838;SDS011;6486;51.034;5.262;2023-05-10T12:57:05;0.47;;;0.20;;
12838;SDS011;6486;51.034;5.262;2023-05-10T12:59:31;3.10;;;1.40;;
12838;SDS011;6486;51.034;5.262;2023-05-10T13:01:57;0.20;;;0.20;;
12838;SDS011;6486;51.034;5.262;2023-05-10T13:04:23;0.20;;;0.13;;
12838;SDS011;6486;51.034;5.262;2023-05-10T13:06:48;0.73;;;0.27;;
12838;SDS011;6486;51.034;5.262;2023-05-10T13:09:14;0.97;;;0.37;;
12838;SDS011;6486;51.034;5.262;2023-05-10T13:11:40;2.00;;;0.60;;
12838;SDS011;6486;51.034;5.262;2023-05-10T13:14:06;0.97;;;0.50;;
12838;SDS011;6486;51.034;5.262;2023-05-10T13:16:32;0.80;;;0.80;;
12838;SDS011;6486;51.034;5.262;2023-05-10T13:18:58;0.33;;;0.30;;
12838;SDS011;6486;51.034;5.262;2023-05-10T13:21:23;1.33;;;0.40;;
12838;SDS011;6486;51.034;5.262;2023-05-10T13:23:50;2.53;;;0.30;;
12838;SDS011;6486;51.034;5.262;2023-05-10T13:26:16;0.77;;;0.50;;
12838;SDS011;6486;51.034;5.262;2023-05-10T13:28:41;2.23;;;0.40;;
12838;SDS011;6486;51.034;5.262;2023-05-10T13:31:08;0.60;;;0.30;;
12838;SDS011;6486;51.034;5.262;2023-05-10T13:33:34;0.10;;;0.10;;
12838;SDS011;6486;51.034;5.262;2023-05-10T13:35:59;0.30;;;0.20;;
12838;SDS011;6486;51.034;5.262;2023-05-10T13:38:25;0.40;;;0.30;;
12838;SDS011;6486;51.034;5.262;2023-05-10T13:40:51;0.47;;;0.47;;
12838;SDS011;6486;51.034;5.262;2023-05-10T13:43:18;0.40;;;0.17;;
12838;SDS011;6486;51.034;5.262;2023-05-10T13:45:44;0.50;;;0.37;;
12838;SDS011;6486;51.034;5.262;2023-05-10T13:48:09;0.30;;;0.30;;
12838;SDS011;6486;51.034;5.262;2023-05-10T13:50:35;0.30;;;0.30;;
12838;SDS011;6486;51.034;5.262;2023-05-10T13:53:01;0.10;;;0.10;;
12838;SDS011;6486;51.034;5.262;2023-05-10T13:55:26;0.37;;;0.37;;
12838;SDS011;6486;51.034;5.262;2023-05-10T13:57:52;1.27;;;0.40;;
12838;SDS011;6486;51.034;5.262;2023-05-10T14:00:18;0.37;;;0.17;;
12838;SDS011;6486;51.034;5.262;2023-05-10T14:02:44;0.17;;;0.17;;
12838;SDS011;6486;51.034;5.262;2023-05-10T14:05:09;0.20;;;0.20;;
12838;SDS011;6486;51.034;5.262;2023-05-10T14:07:35;0.10;;;0.10;;
12838;SDS011;6486;51.034;5.262;2023-05-10T14:10:01;0.47;;;0.40;;
12838;SDS011;6486;51.034;5.262;2023-05-10T14:12:27;0.30;;;0.30;;
12838;SDS011;6486;51.034;5.262;2023-05-10T14:14:52;0.30;;;0.30;;
12838;SDS011;6486;51.034;5.262;2023-05-10T14:17:18;0.33;;;0.27;;
12838;SDS011;6486;51.034;5.262;2023-05-10T14:19:44;0.53;;;0.20;;
12838;SDS011;6486;51.034;5.262;2023-05-10T14:22:10;0.40;;;0.23;;
12838;SDS011;6486;51.034;5.262;2023-05-10T14:24:35;2.57;;;0.20;;
12838;SDS011;6486;51.034;5.262;2023-05-10T14:27:01;0.30;;;0.30;;
12838;SDS011;6486;51.034;5.262;2023-05-10T14:29:27;0.20;;;0.20;;
12838;SDS011;6486;51.034;5.262;2023-05-10T14:31:52;0.30;;;0.30;;
12838;SDS011;6486;51.034;5.262;2023-05-10T14:34:18;0.20;;;0.20;;
12838;SDS011;6486;51.034;5.262;2023-05-10T14:36:43;0.63;;;0.30;;
12838;SDS011;6486;51.034;5.262;2023-05-10T14:39:09;0.93;;;0.47;;
12838;SDS011;6486;51.034;5.262;2023-05-10T14:41:37;0.77;;;0.30;;
12838;SDS011;6486;51.034;5.262;2023-05-10T14:44:05;0.30;;;0.20;;
12838;SDS011;6486;51.034;5.262;2023-05-10T14:46:31;1.77;;;0.60;;
12838;SDS011;6486;51.034;5.262;2023-05-10T14:48:57;0.83;;;0.47;;
12838;SDS011;6486;51.034;5.262;2023-05-10T14:51:22;0.40;;;0.37;;
12838;SDS011;6486;51.034;5.262;2023-05-10T14:53:48;0.40;;;0.20;;
12838;SDS011;6486;51.034;5.262;2023-05-10T14:56:14;0.40;;;0.40;;
12838;SDS011;6486;51.034;5.262;2023-05-10T14:58:40;0.10;;;0.10;;
12838;SDS011;6486;51.034;5.262;2023-05-10T15:01:06;3.23;;;1.20;;
12838;SDS011;6486;51.034;5.262;2023-05-10T15:03:31;0.57;;;0.57;;
12838;SDS011;6486;51.034;5.262;2023-05-10T15:05:57;0.43;;;0.43;;
12838;SDS011;6486;51.034;5.262;2023-05-10T15:08:23;0.60;;;0.47;;
12838;SDS011;6486;51.034;5.262;2023-05-10T15:10:52;1.53;;;0.40;;
12838;SDS011;6486;51.034;5.262;2023-05-10T15:13:17;0.43;;;0.30;;
12838;SDS011;6486;51.034;5.262;2023-05-10T15:15:43;0.40;;;0.30;;
12838;SDS011;6486;51.034;5.262;2023-05-10T15:18:09;0.20;;;0.20;;
12838;SDS011;6486;51.034;5.262;2023-05-10T15:20:35;0.27;;;0.27;;
12838;SDS011;6486;51.034;5.262;2023-05-10T15:23:01;0.60;;;0.47;;
12838;SDS011;6486;51.034;5.262;2023-05-10T15:25:26;0.30;;;0.30;;